Time;durP1;ratioP1;P1;durP2;ratioP2;P2;SDS_P1;SDS_P2;PMS_P1;PMS_P2;Temp;Humidity;BMP_temperature;BMP_pressure;BME280_temperature;BME280_humidity;BME280_pressure;Samples;Min_cycle;Max_cycle;Signal;HPM_P1;HPM_P2
2023/11/13 00:02:19;;;;;;;17.02;7.22;;;;;;;;;;4999917;28;20046;-85
2023/11/13 00:04:46;;;;;;;11.20;7.97;;;;;;;;;;5007930;28;20050;-86
2023/11/13 00:07:13;;;;;;;10.40;7.28;;;;;;;;;;5007777;28;20066;-87
2023/11/13 00:09:41;;;;;;;9.07;7.00;;;;;;;;;;4993131;28;20050;-86
2023/11/13 00:12:10;;;;;;;8.43;7.40;;;;;;;;;;5008090;28;20145;-85
2023/11/13 00:14:37;;;;;;;10.77;8.00;;;;;;;;;;5007878;28;20451;-86
2023/11/13 00:17:05;;;;;;;9.52;7.20;;;;;;;;;;4993105;28;20116;-86
2023/11/13 00:19:32;;;;;;;11.60;6.97;;;;;;;;;;5009732;28;20392;-87
2023/11/13 00:22:00;;;;;;;12.27;7.32;;;;;;;;;;4996501;28;20054;-86
2023/11/13 00:24:27;;;;;;;9.52;6.45;;;;;;;;;;5011337;28;20046;-86
2023/11/13 00:26:54;;;;;;;12.18;7.32;;;;;;;;;;4996331;28;20487;-86
2023/11/13 00:29:22;;;;;;;7.93;6.25;;;;;;;;;;5011931;28;20050;-86
2023/11/13 00:31:49;;;;;;;10.18;6.45;;;;;;;;;;5011502;28;20097;-86
2023/11/13 00:34:16;;;;;;;11.65;8.15;;;;;;;;;;5011481;28;20054;-86
2023/11/13 00:36:43;;;;;;;12.77;8.38;;;;;;;;;;4996046;28;20137;-86
2023/11/13 00:39:11;;;;;;;9.30;7.03;;;;;;;;;;5011288;28;20054;-86
2023/11/13 00:41:41;;;;;;;13.13;7.95;;;;;;;;;;5011145;28;20058;-86
2023/11/13 00:44:08;;;;;;;12.65;7.45;;;;;;;;;;5011114;28;20104;-86
2023/11/13 00:46:36;;;;;;;12.50;8.13;;;;;;;;;;5011209;28;20069;-86
2023/11/13 00:49:03;;;;;;;9.02;6.65;;;;;;;;;;5011264;28;20129;-85
2023/11/13 00:51:31;;;;;;;16.55;7.85;;;;;;;;;;5010992;28;20116;-85
2023/11/13 00:53:58;;;;;;;9.80;7.20;;;;;;;;;;5010810;28;20043;-86
2023/11/13 00:56:25;;;;;;;16.48;8.35;;;;;;;;;;5010924;28;20109;-86
2023/11/13 00:58:53;;;;;;;15.45;9.18;;;;;;;;;;5011384;28;20050;-86
2023/11/13 01:01:20;;;;;;;9.98;7.40;;;;;;;;;;5011224;28;20132;-86
2023/11/13 01:03:48;;;;;;;13.60;8.52;;;;;;;;;;5010772;28;20133;-87
2023/11/13 01:06:16;;;;;;;13.13;7.53;;;;;;;;;;5010817;28;20054;-86
2023/11/13 01:08:44;;;;;;;11.27;7.88;;;;;;;;;;5010575;28;20129;-86
2023/11/13 01:11:12;;;;;;;10.60;7.25;;;;;;;;;;4995336;28;20065;-86
2023/11/13 01:13:39;;;;;;;10.02;7.30;;;;;;;;;;5010690;28;20399;-86
2023/11/13 01:16:06;;;;;;;12.60;7.72;;;;;;;;;;5010356;28;20050;-86
2023/11/13 01:18:34;;;;;;;13.82;8.40;;;;;;;;;;5010552;28;20384;-86
2023/11/13 01:21:02;;;;;;;12.57;9.05;;;;;;;;;;4995318;28;20050;-86
2023/11/13 01:23:29;;;;;;;14.73;8.73;;;;;;;;;;4995321;28;20467;-86
2023/11/13 01:25:56;;;;;;;11.40;8.20;;;;;;;;;;4995189;28;20096;-86
2023/11/13 01:28:24;;;;;;;19.00;10.70;;;;;;;;;;4995612;28;20046;-86
2023/11/13 01:30:51;;;;;;;18.02;11.05;;;;;;;;;;4994413;28;20054;-87
2023/11/13 01:33:21;;;;;;;16.35;10.90;;;;;;;;;;5010209;28;20133;-86
2023/11/13 01:35:49;;;;;;;21.58;10.88;;;;;;;;;;5010090;28;20061;-86
2023/11/13 01:38:17;;;;;;;15.73;9.93;;;;;;;;;;5010293;28;20105;-86
2023/11/13 01:40:46;;;;;;;14.48;9.60;;;;;;;;;;5010133;28;20046;-86
2023/11/13 01:43:18;;;;;;;20.77;10.55;;;;;;;;;;5009701;28;20455;-86
2023/11/13 01:45:46;;;;;;;19.88;11.10;;;;;;;;;;5010050;28;20051;-87
2023/11/13 01:48:14;;;;;;;15.15;10.10;;;;;;;;;;5009851;28;20132;-86
2023/11/13 01:50:42;;;;;;;12.90;8.27;;;;;;;;;;5009951;28;20104;-86
2023/11/13 01:53:10;;;;;;;14.55;8.18;;;;;;;;;;5009845;28;20562;-86
2023/11/13 01:55:37;;;;;;;11.15;8.15;;;;;;;;;;5009911;28;20050;-86
2023/11/13 01:58:05;;;;;;;12.35;8.45;;;;;;;;;;4994538;28;20054;-87
2023/11/13 02:00:34;;;;;;;14.23;9.93;;;;;;;;;;5009678;28;20050;-86
2023/11/13 02:03:05;;;;;;;16.50;10.25;;;;;;;;;;5009418;28;20054;-87
2023/11/13 02:05:33;;;;;;;19.25;10.85;;;;;;;;;;5009901;28;20050;-86
2023/11/13 02:08:00;;;;;;;20.25;10.07;;;;;;;;;;5009854;28;20046;-86
2023/11/13 02:10:27;;;;;;;21.90;12.63;;;;;;;;;;4994897;28;20462;-87
2023/11/13 02:12:55;;;;;;;25.75;14.38;;;;;;;;;;5009590;28;20051;-87
2023/11/13 02:15:22;;;;;;;23.65;12.90;;;;;;;;;;5009248;28;20483;-86
2023/11/13 02:18:00;;;;;;;15.55;10.73;;;;;;;;;;5009546;28;20054;-86
2023/11/13 02:20:28;;;;;;;31.58;14.70;;;;;;;;;;4994367;28;20055;-86
2023/11/13 02:22:56;;;;;;;21.08;13.55;;;;;;;;;;4994176;28;20442;-87
2023/11/13 02:25:24;;;;;;;17.17;11.15;;;;;;;;;;5009128;28;20051;-87
2023/11/13 02:27:53;;;;;;;15.75;11.65;;;;;;;;;;5009122;28;20056;-86
2023/11/13 02:30:20;;;;;;;25.83;12.98;;;;;;;;;;5009281;28;20046;-86
2023/11/13 02:32:48;;;;;;;25.38;13.50;;;;;;;;;;5009501;28;20090;-87
2023/11/13 02:35:20;;;;;;;24.35;13.15;;;;;;;;;;5008923;28;20379;-87
2023/11/13 02:37:47;;;;;;;19.30;11.23;;;;;;;;;;5009268;28;20051;-87
2023/11/13 02:40:14;;;;;;;21.13;11.55;;;;;;;;;;5009045;28;20050;-86
2023/11/13 02:42:42;;;;;;;18.48;11.95;;;;;;;;;;5009275;28;20487;-86
2023/11/13 02:45:09;;;;;;;22.67;12.80;;;;;;;;;;5008746;28;20061;-87
2023/11/13 02:47:37;;;;;;;21.67;12.43;;;;;;;;;;4994045;28;20121;-87
2023/11/13 02:50:06;;;;;;;24.17;13.25;;;;;;;;;;4992822;28;20042;-87
2023/11/13 02:52:34;;;;;;;20.60;12.88;;;;;;;;;;5009018;28;20088;-87
2023/11/13 02:55:02;;;;;;;28.95;14.40;;;;;;;;;;4992920;28;20101;-87
2023/11/13 02:57:29;;;;;;;18.25;12.30;;;;;;;;;;5008634;28;20109;-86
2023/11/13 02:59:56;;;;;;;18.52;11.77;;;;;;;;;;5009017;28;20046;-87
2023/11/13 03:02:24;;;;;;;23.90;12.07;;;;;;;;;;5009134;28;20104;-87
2023/11/13 03:04:51;;;;;;;24.90;13.60;;;;;;;;;;5008622;28;20054;-87
2023/11/13 03:07:18;;;;;;;19.30;11.88;;;;;;;;;;5008823;28;20462;-87
2023/11/13 03:09:46;;;;;;;20.50;11.70;;;;;;;;;;5008537;28;20057;-86
2023/11/13 03:12:13;;;;;;;20.02;12.45;;;;;;;;;;5008558;28;20085;-87
2023/11/13 03:14:40;;;;;;;27.50;15.05;;;;;;;;;;5008724;28;20050;-87
2023/11/13 03:17:08;;;;;;;22.27;13.50;;;;;;;;;;5008760;28;20151;-87
2023/11/13 03:19:35;;;;;;;20.85;12.23;;;;;;;;;;4993448;28;20054;-87
2023/11/13 03:22:02;;;;;;;28.35;15.70;;;;;;;;;;5008494;28;20050;-87
2023/11/13 03:24:29;;;;;;;24.25;13.73;;;;;;;;;;4992925;28;20051;-85
2023/11/13 03:26:57;;;;;;;21.02;13.82;;;;;;;;;;5008727;28;20451;-86
2023/11/13 03:29:27;;;;;;;20.42;13.13;;;;;;;;;;5008721;28;20050;-86
2023/11/13 03:31:54;;;;;;;23.48;13.82;;;;;;;;;;4993492;28;20042;-87
2023/11/13 03:34:22;;;;;;;22.67;13.07;;;;;;;;;;5008225;28;20478;-86
2023/11/13 03:36:50;;;;;;;22.25;13.68;;;;;;;;;;5008380;28;20487;-87
2023/11/13 03:39:18;;;;;;;21.92;13.38;;;;;;;;;;4993209;28;20058;-86
2023/11/13 03:41:46;;;;;;;21.50;12.40;;;;;;;;;;5008776;28;20050;-87
2023/11/13 03:44:13;;;;;;;23.20;14.45;;;;;;;;;;5008374;28;20503;-87
2023/11/13 03:46:40;;;;;;;21.75;12.35;;;;;;;;;;5008701;28;20105;-87
2023/11/13 03:49:08;;;;;;;21.70;13.07;;;;;;;;;;5008470;28;20042;-87
2023/11/13 03:51:36;;;;;;;19.92;13.32;;;;;;;;;;4985162;28;20487;-87
2023/11/13 03:54:03;;;;;;;23.15;13.20;;;;;;;;;;4993700;28;20754;-86
2023/11/13 03:56:30;;;;;;;29.55;14.18;;;;;;;;;;5012145;28;20487;-87
2023/11/13 03:58:58;;;;;;;17.17;12.52;;;;;;;;;;4997210;28;20054;-87
2023/11/13 04:01:25;;;;;;;28.77;15.10;;;;;;;;;;4997051;28;20061;-87
2023/11/13 04:03:53;;;;;;;22.08;14.38;;;;;;;;;;4996806;28;20474;-87
2023/11/13 04:06:20;;;;;;;25.00;14.50;;;;;;;;;;5012040;28;20046;-87
2023/11/13 04:08:48;;;;;;;27.23;15.65;;;;;;;;;;5012272;28;20057;-87
2023/11/13 04:11:15;;;;;;;17.60;12.68;;;;;;;;;;5012292;28;20104;-87
2023/11/13 04:13:44;;;;;;;21.10;14.05;;;;;;;;;;5011743;28;20466;-87
2023/11/13 04:16:11;;;;;;;27.83;14.48;;;;;;;;;;4996396;28;20050;-86
2023/11/13 04:18:39;;;;;;;21.42;13.60;;;;;;;;;;5011788;28;20086;-86
2023/11/13 04:21:06;;;;;;;22.25;13.25;;;;;;;;;;5011832;28;20061;-87
2023/11/13 04:23:33;;;;;;;32.08;16.25;;;;;;;;;;4996614;28;20061;-86
2023/11/13 04:26:01;;;;;;;28.63;15.57;;;;;;;;;;5011366;28;20097;-86
2023/11/13 04:28:32;;;;;;;26.02;15.15;;;;;;;;;;5011622;28;20506;-87
2023/11/13 04:31:04;;;;;;;29.67;14.80;;;;;;;;;;5011093;28;20121;-87
2023/11/13 04:33:31;;;;;;;30.77;16.60;;;;;;;;;;5011737;28;20066;-87
2023/11/13 04:36:01;;;;;;;19.70;13.45;;;;;;;;;;5011567;28;20046;-87
2023/11/13 04:38:29;;;;;;;25.40;15.70;;;;;;;;;;4996347;28;20133;-85
2023/11/13 04:40:57;;;;;;;21.10;14.07;;;;;;;;;;4996239;28;20057;-86
2023/11/13 04:43:26;;;;;;;26.67;16.08;;;;;;;;;;5011283;28;20086;-87
2023/11/13 04:45:53;;;;;;;27.27;15.88;;;;;;;;;;4996332;28;20046;-86
2023/11/13 04:48:21;;;;;;;21.30;13.40;;;;;;;;;;4996446;28;20057;-86
2023/11/13 04:50:49;;;;;;;21.02;14.15;;;;;;;;;;5011469;28;20050;-86
2023/11/13 04:53:17;;;;;;;21.67;13.57;;;;;;;;;;4996060;28;20051;-86
2023/11/13 04:55:44;;;;;;;25.25;15.05;;;;;;;;;;5011049;28;20057;-87
2023/11/13 04:58:11;;;;;;;23.15;13.20;;;;;;;;;;5011342;28;20396;-87
2023/11/13 05:00:38;;;;;;;30.05;18.25;;;;;;;;;;5011819;28;20495;-86
2023/11/13 05:03:06;;;;;;;31.05;17.77;;;;;;;;;;5010867;28;20054;-87
2023/11/13 05:05:36;;;;;;;26.92;14.93;;;;;;;;;;5010075;28;20562;-87
2023/11/13 05:08:05;;;;;;;22.60;15.20;;;;;;;;;;5010824;28;20080;-86
2023/11/13 05:10:33;;;;;;;27.65;15.80;;;;;;;;;;4995766;28;20050;-87
2023/11/13 05:13:01;;;;;;;32.28;15.77;;;;;;;;;;5010858;28;20084;-87
2023/11/13 05:15:29;;;;;;;25.63;11.57;;;;;;;;;;5011154;28;20050;-86
2023/11/13 05:17:56;;;;;;;25.10;15.48;;;;;;;;;;5011454;28;20061;-86
2023/11/13 05:20:24;;;;;;;584.50;161.93;;;;;;;;;;5010461;28;20671;-86
2023/11/13 05:22:51;;;;;;;24.40;12.20;;;;;;;;;;4995493;28;20126;-86
2023/11/13 05:25:19;;;;;;;21.35;12.13;;;;;;;;;;5010292;28;20046;-87
2023/11/13 05:27:46;;;;;;;103.43;20.23;;;;;;;;;;4995292;28;20519;-86
2023/11/13 05:30:14;;;;;;;25.95;17.13;;;;;;;;;;5010182;28;20047;-87
2023/11/13 05:32:41;;;;;;;370.63;35.40;;;;;;;;;;5010387;28;20081;-86
2023/11/13 05:35:08;;;;;;;134.55;23.35;;;;;;;;;;5010287;28;20054;-87
2023/11/13 05:37:36;;;;;;;20.42;15.15;;;;;;;;;;4994712;28;20050;-86
2023/11/13 05:40:05;;;;;;;18.00;14.00;;;;;;;;;;5010078;28;20046;-87
2023/11/13 05:42:33;;;;;;;23.00;15.02;;;;;;;;;;5009985;28;20492;-86
2023/11/13 05:45:00;;;;;;;23.77;15.80;;;;;;;;;;5001901;28;20046;-86
2023/11/13 05:47:28;;;;;;;19.52;14.40;;;;;;;;;;4994645;28;20050;-86
2023/11/13 05:49:55;;;;;;;17.02;13.57;;;;;;;;;;5009732;28;20057;-86
2023/11/13 05:52:23;;;;;;;20.55;14.75;;;;;;;;;;4994652;28;20129;-86
2023/11/13 05:54:50;;;;;;;18.23;13.95;;;;;;;;;;5009743;28;20046;-86
2023/11/13 05:57:18;;;;;;;17.20;13.20;;;;;;;;;;5009956;28;20097;-86
2023/11/13 05:59:45;;;;;;;18.30;13.50;;;;;;;;;;5009565;28;20376;-86
2023/11/13 06:02:12;;;;;;;20.92;14.55;;;;;;;;;;5009611;28;20058;-86
2023/11/13 06:04:43;;;;;;;16.52;14.20;;;;;;;;;;5009253;28;20054;-86
2023/11/13 06:07:11;;;;;;;14.98;12.23;;;;;;;;;;4994634;28;20050;-86
2023/11/13 06:09:39;;;;;;;142.05;17.02;;;;;;;;;;5001924;28;20043;-85
2023/11/13 06:12:06;;;;;;;12.95;10.95;;;;;;;;;;4994189;28;20050;-87
2023/11/13 06:14:33;;;;;;;12.95;11.20;;;;;;;;;;5009267;28;20061;-86
2023/11/13 06:17:02;;;;;;;17.30;10.80;;;;;;;;;;5008697;28;20050;-87
2023/11/13 06:19:29;;;;;;;12.20;10.57;;;;;;;;;;5009139;28;20466;-86
2023/11/13 06:21:57;;;;;;;10.98;9.48;;;;;;;;;;5009347;28;20137;-86
2023/11/13 06:24:24;;;;;;;9.52;8.52;;;;;;;;;;5009181;28;20062;-85
2023/11/13 06:26:51;;;;;;;9.65;8.65;;;;;;;;;;4994109;28;20073;-85
2023/11/13 06:29:19;;;;;;;9.38;8.35;;;;;;;;;;5009397;28;20046;-85
2023/11/13 06:31:46;;;;;;;8.82;7.95;;;;;;;;;;5009126;28;20089;-85
2023/11/13 06:34:13;;;;;;;13.35;11.10;;;;;;;;;;5009198;28;20058;-86
2023/11/13 06:36:44;;;;;;;9.23;8.32;;;;;;;;;;5009257;28;20140;-86
2023/11/13 06:39:11;;;;;;;9.05;7.55;;;;;;;;;;5009087;28;20046;-86
2023/11/13 06:41:38;;;;;;;9.73;8.30;;;;;;;;;;5009298;28;20105;-85
2023/11/13 06:44:07;;;;;;;8.88;7.97;;;;;;;;;;5009107;28;20101;-86
2023/11/13 06:46:35;;;;;;;11.23;10.10;;;;;;;;;;5009407;28;20100;-86
2023/11/13 06:49:03;;;;;;;9.00;8.10;;;;;;;;;;4993910;28;20054;-85
2023/11/13 06:51:30;;;;;;;7.97;6.93;;;;;;;;;;4985908;28;20051;-85
2023/11/13 06:53:58;;;;;;;8.10;7.15;;;;;;;;;;5009082;28;20054;-86
2023/11/13 06:56:25;;;;;;;8.20;7.28;;;;;;;;;;4993791;28;20083;-86
2023/11/13 06:58:52;;;;;;;9.60;6.22;;;;;;;;;;4993627;28;20050;-87
2023/11/13 07:01:20;;;;;;;7.55;6.68;;;;;;;;;;4993834;28;20105;-86
2023/11/13 07:03:47;;;;;;;6.47;5.88;;;;;;;;;;4993758;28;20050;-85
2023/11/13 07:06:15;;;;;;;6.10;5.57;;;;;;;;;;5008856;28;20582;-86
2023/11/13 07:08:42;;;;;;;7.65;6.22;;;;;;;;;;5008863;28;20085;-86
2023/11/13 07:11:14;;;;;;;6.70;6.03;;;;;;;;;;4993473;28;20101;-84
2023/11/13 07:13:42;;;;;;;6.45;5.82;;;;;;;;;;5008797;28;20450;-86
2023/11/13 07:16:10;;;;;;;6.15;5.55;;;;;;;;;;4993426;28;20124;-85
2023/11/13 07:18:37;;;;;;;5.65;5.15;;;;;;;;;;4985766;28;20052;-87
2023/11/13 07:21:06;;;;;;;5.97;5.47;;;;;;;;;;5009160;28;20046;-87
2023/11/13 07:23:33;;;;;;;5.55;5.07;;;;;;;;;;5008754;28;20078;-86
2023/11/13 07:26:00;;;;;;;5.03;4.50;;;;;;;;;;5008407;28;20054;-87
2023/11/13 07:28:28;;;;;;;4.90;4.50;;;;;;;;;;5008813;28;20047;-87
2023/11/13 07:30:55;;;;;;;4.65;4.25;;;;;;;;;;5012790;28;20112;-87
2023/11/13 07:33:23;;;;;;;4.25;3.95;;;;;;;;;;5012913;28;20415;-86
2023/11/13 07:35:50;;;;;;;4.65;4.25;;;;;;;;;;5013005;28;20054;-87
2023/11/13 07:38:18;;;;;;;4.45;4.05;;;;;;;;;;4997590;28;20050;-87
2023/11/13 07:40:47;;;;;;;3.88;3.58;;;;;;;;;;5012548;28;20515;-87
2023/11/13 07:43:15;;;;;;;4.55;4.15;;;;;;;;;;5012897;28;20046;-87
2023/11/13 07:45:42;;;;;;;3.70;3.42;;;;;;;;;;4997334;28;20042;-87
2023/11/13 07:48:10;;;;;;;3.40;3.10;;;;;;;;;;4997634;28;20419;-87
2023/11/13 07:50:37;;;;;;;4.60;3.40;;;;;;;;;;4989451;28;20093;-87
2023/11/13 07:53:25;;;;;;;2.95;2.75;;;;;;;;;;5010079;28;20058;-87
2023/11/13 07:55:54;;;;;;;3.15;2.85;;;;;;;;;;5012541;28;20069;-86
2023/11/13 07:58:22;;;;;;;2.92;2.72;;;;;;;;;;5012723;28;20061;-87
2023/11/13 08:00:52;;;;;;;2.70;2.60;;;;;;;;;;4997421;28;20046;-88
2023/11/13 08:03:20;;;;;;;3.30;3.10;;;;;;;;;;5012109;28;20054;-86
2023/11/13 08:05:48;;;;;;;2.83;2.63;;;;;;;;;;5012438;28;20046;-87
2023/11/13 08:08:16;;;;;;;2.75;2.55;;;;;;;;;;5012172;28;20538;-88
2023/11/13 08:10:46;;;;;;;2.70;2.50;;;;;;;;;;5012691;28;20137;-88
2023/11/13 08:13:18;;;;;;;2.97;2.78;;;;;;;;;;5012001;28;20487;-88
2023/11/13 08:15:45;;;;;;;3.13;2.65;;;;;;;;;;4996978;28;20058;-88
2023/11/13 08:18:14;;;;;;;2.85;2.65;;;;;;;;;;4996971;28;20050;-89
2023/11/13 08:20:42;;;;;;;2.63;2.42;;;;;;;;;;5012483;28;20054;-89
2023/11/13 08:23:13;;;;;;;2.85;2.65;;;;;;;;;;4997038;28;20050;-89
2023/11/13 08:25:45;;;;;;;2.67;2.10;;;;;;;;;;5005119;28;20533;-89
2023/11/13 08:28:12;;;;;;;2.42;2.33;;;;;;;;;;5012057;28;20483;-88
2023/11/13 08:30:41;;;;;;;3.55;2.33;;;;;;;;;;4996753;28;20058;-89
2023/11/13 08:33:09;;;;;;;2.10;2.00;;;;;;;;;;5011992;28;20050;-88
2023/11/13 08:35:37;;;;;;;4.13;2.10;;;;;;;;;;5012063;28;20415;-89
2023/11/13 08:38:05;;;;;;;1.92;1.83;;;;;;;;;;4996673;28;20050;-89
2023/11/13 08:40:33;;;;;;;1.70;1.60;;;;;;;;;;5011972;28;20102;-89
2023/11/13 08:43:06;;;;;;;1.98;1.88;;;;;;;;;;5011398;28;20057;-89
2023/11/13 08:45:35;;;;;;;1.70;1.60;;;;;;;;;;5011887;28;20046;-89
2023/11/13 08:48:16;;;;;;;1.55;1.45;;;;;;;;;;5010331;28;20137;-90
2023/11/13 08:50:46;;;;;;;2.10;2.00;;;;;;;;;;5011620;28;20062;-89
2023/11/13 08:53:14;;;;;;;2.90;2.00;;;;;;;;;;4996184;28;20058;-89
2023/11/13 08:55:42;;;;;;;2.90;2.70;;;;;;;;;;4996181;28;20105;-89
2023/11/13 08:58:09;;;;;;;1.10;1.10;;;;;;;;;;5011622;28;20137;-89
2023/11/13 09:00:43;;;;;;;1.10;1.10;;;;;;;;;;5004151;28;20050;-89
2023/11/13 09:03:18;;;;;;;1.20;1.05;;;;;;;;;;5011863;28;20046;-90
2023/11/13 09:05:46;;;;;;;1.40;1.30;;;;;;;;;;5011435;28;20073;-90
2023/11/13 09:09:26;;;;;;;0.80;0.80;;;;;;;;;;5011712;28;20058;-90
2023/11/13 09:11:42;;;;;;;2.35;0.63;;;;;;;;;;4986315;28;20047;-93
2023/11/13 09:14:09;;;;;;;0.75;0.75;;;;;;;;;;5011129;28;20541;-89
2023/11/13 09:16:38;;;;;;;0.60;0.60;;;;;;;;;;5011101;28;20133;-90
2023/11/13 09:19:06;;;;;;;0.43;0.43;;;;;;;;;;5011301;28;20137;-90
2023/11/13 09:21:34;;;;;;;0.50;0.50;;;;;;;;;;5011118;28;20149;-89
2023/11/13 09:24:02;;;;;;;0.50;0.50;;;;;;;;;;4995852;28;20415;-89
2023/11/13 09:26:29;;;;;;;0.60;0.60;;;;;;;;;;4995777;28;20046;-89
2023/11/13 09:28:57;;;;;;;0.63;0.60;;;;;;;;;;5010861;28;20086;-89
2023/11/13 09:31:24;;;;;;;0.60;0.60;;;;;;;;;;5011032;28;20407;-90
2023/11/13 09:33:52;;;;;;;0.40;0.40;;;;;;;;;;5010973;28;20140;-90
2023/11/13 09:36:19;;;;;;;0.57;0.57;;;;;;;;;;5010737;28;20050;-89
2023/11/13 09:38:49;;;;;;;0.25;0.20;;;;;;;;;;4995431;28;20062;-90
2023/11/13 09:41:18;;;;;;;1.23;0.38;;;;;;;;;;5010722;28;20057;-90
2023/11/13 09:43:46;;;;;;;0.20;0.20;;;;;;;;;;5010635;28;20592;-89
2023/11/13 09:46:14;;;;;;;0.38;0.38;;;;;;;;;;5010716;28;20047;-89
2023/11/13 09:48:46;;;;;;;0.30;0.30;;;;;;;;;;4995612;28;20046;-88
2023/11/13 09:51:13;;;;;;;0.40;0.40;;;;;;;;;;4995412;28;20054;-88
2023/11/13 09:53:57;;;;;;;0.73;0.73;;;;;;;;;;5008525;28;20051;-90
2023/11/13 09:56:27;;;;;;;0.60;0.60;;;;;;;;;;5010542;28;20108;-89
2023/11/13 09:58:57;;;;;;;0.40;0.40;;;;;;;;;;5010349;28;20046;-89
2023/11/13 10:01:25;;;;;;;0.20;0.20;;;;;;;;;;5010319;28;20050;-89
2023/11/13 10:03:54;;;;;;;0.40;0.20;;;;;;;;;;5010001;28;20471;-89
2023/11/13 10:06:23;;;;;;;0.40;0.40;;;;;;;;;;4994456;28;20046;-88
2023/11/13 10:08:53;;;;;;;0.38;0.38;;;;;;;;;;5010342;28;20058;-87
2023/11/13 10:11:21;;;;;;;0.30;0.25;;;;;;;;;;5010220;28;20404;-89
2023/11/13 10:13:48;;;;;;;0.10;0.10;;;;;;;;;;5010010;28;20085;-89
2023/11/13 10:16:18;;;;;;;0.32;0.32;;;;;;;;;;4994937;28;20046;-88
2023/11/13 10:18:47;;;;;;;0.73;0.60;;;;;;;;;;5009604;28;20046;-89
2023/11/13 10:21:21;;;;;;;0.60;0.15;;;;;;;;;;5009985;28;20105;-88
2023/11/13 10:23:49;;;;;;;1.05;0.25;;;;;;;;;;5009893;28;20137;-88
2023/11/13 10:26:25;;;;;;;1.98;0.25;;;;;;;;;;4994615;28;20105;-89
2023/11/13 10:28:53;;;;;;;0.45;0.20;;;;;;;;;;4994530;28;20510;-89
2023/11/13 10:31:23;;;;;;;0.20;0.20;;;;;;;;;;5009527;28;20061;-89
2023/11/13 10:34:00;;;;;;;0.10;0.10;;;;;;;;;;4994615;28;20077;-88
2023/11/13 10:36:29;;;;;;;0.82;0.45;;;;;;;;;;5009834;28;20055;-88
2023/11/13 10:39:00;;;;;;;0.32;0.32;;;;;;;;;;5009033;28;20054;-88
2023/11/13 10:41:29;;;;;;;1.00;0.60;;;;;;;;;;5009433;28;20057;-88
2023/11/13 10:43:57;;;;;;;0.65;0.50;;;;;;;;;;4993968;28;20130;-88
2023/11/13 10:46:33;;;;;;;0.38;0.38;;;;;;;;;;5009597;28;20050;-88
2023/11/13 10:49:02;;;;;;;0.70;0.70;;;;;;;;;;4994342;28;20054;-89
2023/11/13 10:51:30;;;;;;;3.13;1.05;;;;;;;;;;4994203;28;20125;-90
2023/11/13 10:54:03;;;;;;;0.80;0.80;;;;;;;;;;5009280;28;20116;-89
2023/11/13 10:56:31;;;;;;;0.22;0.22;;;;;;;;;;5009428;28;20093;-89
2023/11/13 10:58:59;;;;;;;1.67;0.60;;;;;;;;;;5009422;28;20046;-89
2023/11/13 11:01:29;;;;;;;1.08;0.35;;;;;;;;;;5010676;28;20487;-89
2023/11/13 11:03:59;;;;;;;1.48;0.45;;;;;;;;;;5008082;28;20073;-87
2023/11/13 11:06:32;;;;;;;1.33;0.68;;;;;;;;;;5009052;28;20046;-89
2023/11/13 11:09:04;;;;;;;0.70;0.50;;;;;;;;;;5009042;28;20046;-88
2023/11/13 11:11:34;;;;;;;0.70;0.50;;;;;;;;;;5009497;28;20102;-89
2023/11/13 11:14:06;;;;;;;1.48;0.60;;;;;;;;;;5009286;28;20054;-89
2023/11/13 11:16:38;;;;;;;0.50;0.50;;;;;;;;;;5009210;28;20043;-89
2023/11/13 11:19:18;;;;;;;0.93;0.60;;;;;;;;;;5009046;28;20093;-89
2023/11/13 11:21:58;;;;;;;0.73;0.50;;;;;;;;;;5002444;28;20058;-89
2023/11/13 11:24:44;;;;;;;0.65;0.65;;;;;;;;;;5008984;28;20093;-88
2023/11/13 11:27:31;;;;;;;1.08;1.05;;;;;;;;;;5009473;28;20499;-90
2023/11/13 11:29:59;;;;;;;5.88;2.38;;;;;;;;;;4994565;28;20113;-89
2023/11/13 11:32:26;;;;;;;30.90;13.07;;;;;;;;;;5009736;28;20043;-89
2023/11/13 11:35:03;;;;;;;17.90;8.55;;;;;;;;;;5009079;28;20054;-89
2023/11/13 11:37:30;;;;;;;6.50;4.03;;;;;;;;;;5009382;28;20073;-90
2023/11/13 11:40:03;;;;;;;8.45;5.05;;;;;;;;;;5009088;28;20582;-89
2023/11/13 11:42:32;;;;;;;4.47;2.80;;;;;;;;;;5009437;28;20054;-89
2023/11/13 11:45:01;;;;;;;2.10;1.70;;;;;;;;;;5008965;28;20074;-90
2023/11/13 11:47:29;;;;;;;2.72;1.73;;;;;;;;;;4993940;28;20479;-89
2023/11/13 11:49:58;;;;;;;1.85;1.75;;;;;;;;;;5009020;28;20606;-89
2023/11/13 11:52:43;;;;;;;3.42;3.13;;;;;;;;;;5008938;28;20046;-89
2023/11/13 11:55:12;;;;;;;5.18;2.15;;;;;;;;;;4993661;28;20050;-89
2023/11/13 11:57:44;;;;;;;1.85;1.75;;;;;;;;;;5008863;28;20051;-89
2023/11/13 12:00:19;;;;;;;3.60;2.55;;;;;;;;;;5008862;28;20550;-89
2023/11/13 12:02:48;;;;;;;1.20;1.20;;;;;;;;;;5008833;28;20057;-89
2023/11/13 12:05:15;;;;;;;2.10;1.30;;;;;;;;;;4993336;28;20129;-89
2023/11/13 12:07:42;;;;;;;1.58;1.15;;;;;;;;;;5008791;28;20113;-89
2023/11/13 12:10:10;;;;;;;1.50;1.30;;;;;;;;;;5009016;28;20414;-88
2023/11/13 12:12:38;;;;;;;2.28;1.98;;;;;;;;;;5001147;28;20054;-89
2023/11/13 12:15:07;;;;;;;1.00;1.00;;;;;;;;;;5009460;28;20042;-89
2023/11/13 12:17:38;;;;;;;0.98;0.80;;;;;;;;;;5012431;28;20487;-90
2023/11/13 12:20:06;;;;;;;0.63;0.63;;;;;;;;;;5012160;28;20057;-89
2023/11/13 12:22:47;;;;;;;0.63;0.43;;;;;;;;;;5010879;28;20561;-89
2023/11/13 12:25:15;;;;;;;1.00;0.75;;;;;;;;;;4996834;28;20050;-89
2023/11/13 12:27:43;;;;;;;1.20;1.10;;;;;;;;;;5012237;28;20046;-89
2023/11/13 12:30:20;;;;;;;1.30;1.20;;;;;;;;;;4996888;28;20449;-89
2023/11/13 12:32:48;;;;;;;1.85;1.75;;;;;;;;;;4990111;28;20105;-89
2023/11/13 12:35:20;;;;;;;1.50;1.10;;;;;;;;;;5011786;28;20047;-88
2023/11/13 12:37:48;;;;;;;2.00;1.70;;;;;;;;;;5011858;28;20101;-88
2023/11/13 12:40:20;;;;;;;0.90;0.88;;;;;;;;;;5011803;28;20050;-89
2023/11/13 12:42:51;;;;;;;1.80;1.20;;;;;;;;;;5011555;28;20047;-89
2023/11/13 12:45:19;;;;;;;0.73;0.73;;;;;;;;;;5011507;28;20054;-89
2023/11/13 12:47:47;;;;;;;0.47;0.40;;;;;;;;;;5011893;28;20046;-88
2023/11/13 12:50:16;;;;;;;1.05;0.35;;;;;;;;;;4996696;28;20050;-90
2023/11/13 12:52:46;;;;;;;0.45;0.40;;;;;;;;;;5011558;28;20050;-89
2023/11/13 12:55:21;;;;;;;0.90;0.90;;;;;;;;;;5011150;28;20491;-89
2023/11/13 12:57:50;;;;;;;1.25;1.15;;;;;;;;;;5011670;28;20057;-89
2023/11/13 13:00:20;;;;;;;0.73;0.73;;;;;;;;;;5011541;28;20109;-90
2023/11/13 13:02:49;;;;;;;0.30;0.30;;;;;;;;;;5011670;28;20058;-89
2023/11/13 13:05:17;;;;;;;0.63;0.40;;;;;;;;;;4996714;28;20061;-89
2023/11/13 13:07:58;;;;;;;0.95;0.70;;;;;;;;;;5009549;28;20474;-89
2023/11/13 13:10:30;;;;;;;2.22;1.17;;;;;;;;;;5011195;28;20086;-89
2023/11/13 13:13:00;;;;;;;1.23;0.88;;;;;;;;;;4995881;28;20054;-90
2023/11/13 13:15:28;;;;;;;0.73;0.50;;;;;;;;;;5010758;28;20108;-90
2023/11/13 13:17:57;;;;;;;0.40;0.40;;;;;;;;;;4995812;28;20050;-89
2023/11/13 13:20:32;;;;;;;0.73;0.73;;;;;;;;;;4995992;28;20081;-89
2023/11/13 13:23:01;;;;;;;275.77;21.77;;;;;;;;;;5010674;28;20050;-89
2023/11/13 13:25:30;;;;;;;1.15;1.00;;;;;;;;;;5010662;28;20077;-90
2023/11/13 13:27:59;;;;;;;0.40;0.40;;;;;;;;;;4994640;28;20050;-90
2023/11/13 13:30:31;;;;;;;1.60;0.90;;;;;;;;;;5010582;28;20056;-90
2023/11/13 13:32:59;;;;;;;1.05;0.85;;;;;;;;;;5010855;28;20061;-90
2023/11/13 13:35:27;;;;;;;1.38;0.60;;;;;;;;;;5010823;28;20415;-90
2023/11/13 13:37:54;;;;;;;1.30;0.70;;;;;;;;;;5010850;28;20149;-90
2023/11/13 13:40:22;;;;;;;0.52;0.52;;;;;;;;;;5010503;28;20054;-90
2023/11/13 13:42:50;;;;;;;0.65;0.65;;;;;;;;;;5010421;28;20050;-90
2023/11/13 13:45:18;;;;;;;0.73;0.60;;;;;;;;;;5010275;28;20553;-90
2023/11/13 13:47:49;;;;;;;4.05;1.13;;;;;;;;;;4995145;28;20443;-89
2023/11/13 13:50:17;;;;;;;1.10;0.98;;;;;;;;;;4995254;28;20057;-90
2023/11/13 13:52:56;;;;;;;2.15;1.30;;;;;;;;;;4995044;28;20459;-90
2023/11/13 13:55:29;;;;;;;1.40;0.60;;;;;;;;;;5009667;28;20092;-89
2023/11/13 13:58:00;;;;;;;0.95;0.45;;;;;;;;;;5010085;28;20050;-89
2023/11/13 14:00:29;;;;;;;0.90;0.80;;;;;;;;;;5010210;28;20046;-89
2023/11/13 14:03:07;;;;;;;1.45;1.30;;;;;;;;;;5009202;28;20380;-90
2023/11/13 14:05:41;;;;;;;1.35;0.80;;;;;;;;;;4987324;28;20388;-87
2023/11/13 14:08:14;;;;;;;0.40;0.40;;;;;;;;;;4994370;28;20142;-89
2023/11/13 14:10:49;;;;;;;;;;;;;;;;;;5010327;28;20050;-89
2023/11/13 14:13:19;;;;;;;0.10;0.10;;;;;;;;;;4994927;28;19925;-90
2023/11/13 14:15:47;;;;;;;0.65;0.20;;;;;;;;;;5010070;28;20073;-90
2023/11/13 14:18:33;;;;;;;0.65;0.40;;;;;;;;;;5007662;28;20050;-90
2023/11/13 14:21:01;;;;;;;0.20;0.20;;;;;;;;;;4996400;28;20060;-90
2023/11/13 14:23:29;;;;;;;0.10;0.10;;;;;;;;;;5010670;28;20100;-90
2023/11/13 14:25:57;;;;;;;0.10;0.10;;;;;;;;;;5009976;28;20054;-90
2023/11/13 14:28:24;;;;;;;0.40;0.20;;;;;;;;;;5009869;28;20137;-89
2023/11/13 14:30:54;;;;;;;0.10;0.10;;;;;;;;;;5009521;28;20073;-89
2023/11/13 14:33:21;;;;;;;0.40;0.40;;;;;;;;;;5009501;28;20057;-89
2023/11/13 14:35:50;;;;;;;1.20;1.20;;;;;;;;;;5009499;28;20133;-90
2023/11/13 14:38:18;;;;;;;0.52;0.30;;;;;;;;;;5009435;28;20133;-89
2023/11/13 14:40:46;;;;;;;0.63;0.40;;;;;;;;;;5009352;28;20062;-89
2023/11/13 14:43:13;;;;;;;0.20;0.20;;;;;;;;;;5009231;28;20441;-88
2023/11/13 14:45:44;;;;;;;0.95;0.20;;;;;;;;;;5009486;28;20093;-88